Alexander Field South Wood County, WI

11:51 AM CDT on September 02, 2014 (GMT -0500)
Marshfield Municipal | Change Station
CLOSE
Current Station
Airport
Location: Marshfield,
Elevation: 1276 ft
Nearby Weather Stations

Elev 1276 ft 44.64 °N, 90.19 °W | Updated 57 minutes ago

Clear
Clear
70 °F
Feels Like 70 °F
N
10
Wind Variable Wind from West

Today
High -- | Low -- °F
--% Chance of Precip.
Yesterday
High -- | Low -- °F
Precip. -- in
6:23 AM 7:33 PM
First Quarter, 53% visible
Pressure 29.89 in
Visibility 10.0 miles
Clouds Clear
Dew Point 61 °F
Humidity 73%
Rainfall 0.01 in
Snow Depth Not available.
UV 6 out of 12
Pollen 8.80 out of 12
Air Quality Not available.
Flu Activity Not available.
METAR KMFI 021554Z AUTO 26009KT 10SM CLR 21/16 A2989 RMK AO2 SLP120 T02110161

More Conditions Fewer Conditions

Pressure 29.89 in
Visibility 10.0 miles
Clouds Clear
Dew Point 61 °F
Humidity 73%
Rainfall 0.01 in
Snow Depth Not available.
UV 6 out of 12
Pollen 8.80 out of 12
Air Quality Not available.
Flu Activity Not available.
METAR KMFI 021554Z AUTO 26009KT 10SM CLR 21/16 A2989 RMK AO2 SLP120 T02110161

More Conditions Fewer Conditions

10-Day Weather Forecast

Almanac

Astronomy

Sep. 02, 2014 Rise Set
Actual Time 6:23 AM CDT 7:33 PM CDT
Civil Twilight 5:53 AM CDT 8:03 PM CDT
Nautical Twilight 5:17 AM CDT 8:39 PM CDT
Astronomical Twilight 4:39 AM CDT 9:17 PM CDT
Moon 2:23 PM CDT No Moon Set
Length of Visible Light 14h 10m
Length of Day
13h 10m
Tomorrow will be 2m 57s shorter.
First Quarter, 53% of the Moon is Illuminated
Today
First Quarter
Sep 8
Full
Sep 15
Last Quarter
Sep 24
New
Oct 1
First Quarter

Today's Extremes

State Highs State Lows

Community

WunderPhotos

Upload Photos

1,749,716 photos uploaded!

WunderBlogs® & News

Nearby

Snow Depth

Station Depth Elevation
No new snow has been reported.

Earthquake Activity

City Distance Mag. Time & Date
No recent earthquake activity has been reported nearby.
Minimum magnitude displayed is 2.5.

Coastal Water Temperatures

Place Temperature
No Stations Reporting

Nearby Weather Stations